sensor_id;sensor_type;location;lat;lon;timestamp;pressure;altitude;pressure_sealevel;temperature
67829;BMP280;54626;45.436;10.942;2023-03-19T00:00:27;100933.81;;;9.05
67829;BMP280;54626;45.436;10.942;2023-03-19T00:02:54;100941.34;;;9.05
67829;BMP280;54626;45.436;10.942;2023-03-19T00:05:21;100936.34;;;9.03
67829;BMP280;54626;45.436;10.942;2023-03-19T00:07:47;100933.56;;;9.03
67829;BMP280;54626;45.436;10.942;2023-03-19T00:10:14;100938.66;;;9.00
67829;BMP280;54626;45.436;10.942;2023-03-19T00:12:47;100933.16;;;8.94
67829;BMP280;54626;45.436;10.942;2023-03-19T00:15:13;100937.53;;;8.79
67829;BMP280;54626;45.436;10.942;2023-03-19T00:17:44;100931.09;;;8.71
67829;BMP280;54626;45.436;10.942;2023-03-19T00:20:11;100926.88;;;8.59
67829;BMP280;54626;45.436;10.942;2023-03-19T00:22:40;100920.25;;;8.43
67829;BMP280;54626;45.436;10.942;2023-03-19T00:25:08;100940.00;;;8.47
67829;BMP280;54626;45.436;10.942;2023-03-19T00:27:36;100934.03;;;8.43
67829;BMP280;54626;45.436;10.942;2023-03-19T00:30:05;100938.50;;;8.46
67829;BMP280;54626;45.436;10.942;2023-03-19T00:32:32;100933.00;;;8.46
67829;BMP280;54626;45.436;10.942;2023-03-19T00:34:59;100930.47;;;8.48
67829;BMP280;54626;45.436;10.942;2023-03-19T00:37:26;100934.97;;;8.46
67829;BMP280;54626;45.436;10.942;2023-03-19T00:39:53;100938.53;;;8.41
67829;BMP280;54626;45.436;10.942;2023-03-19T00:42:22;100934.81;;;8.33
67829;BMP280;54626;45.436;10.942;2023-03-19T00:44:48;100929.81;;;8.31
67829;BMP280;54626;45.436;10.942;2023-03-19T00:47:15;100924.09;;;8.24
67829;BMP280;54626;45.436;10.942;2023-03-19T00:49:42;100922.56;;;8.28
67829;BMP280;54626;45.436;10.942;2023-03-19T00:52:08;100931.31;;;8.32
67829;BMP280;54626;45.436;10.942;2023-03-19T00:54:35;100945.03;;;8.38
67829;BMP280;54626;45.436;10.942;2023-03-19T00:57:02;100934.28;;;8.40
67829;BMP280;54626;45.436;10.942;2023-03-19T00:59:28;100934.75;;;8.44
67829;BMP280;54626;45.436;10.942;2023-03-19T01:01:55;100935.75;;;8.46
67829;BMP280;54626;45.436;10.942;2023-03-19T01:04:21;100919.69;;;8.50
67829;BMP280;54626;45.436;10.942;2023-03-19T01:06:48;100911.38;;;8.56
67829;BMP280;54626;45.436;10.942;2023-03-19T01:09:17;100907.09;;;8.60
67829;BMP280;54626;45.436;10.942;2023-03-19T01:11:43;100906.81;;;8.64
67829;BMP280;54626;45.436;10.942;2023-03-19T01:14:10;100897.75;;;8.69
67829;BMP280;54626;45.436;10.942;2023-03-19T01:16:37;100899.50;;;8.72
67829;BMP280;54626;45.436;10.942;2023-03-19T01:19:03;100899.47;;;8.77
67829;BMP280;54626;45.436;10.942;2023-03-19T01:21:30;100897.44;;;8.78
67829;BMP280;54626;45.436;10.942;2023-03-19T01:23:57;100894.44;;;8.76
67829;BMP280;54626;45.436;10.942;2023-03-19T01:26:24;100904.53;;;8.73
67829;BMP280;54626;45.436;10.942;2023-03-19T01:28:51;100901.00;;;8.73
67829;BMP280;54626;45.436;10.942;2023-03-19T01:31:18;100899.50;;;8.72
67829;BMP280;54626;45.436;10.942;2023-03-19T01:33:45;100898.06;;;8.60
67829;BMP280;54626;45.436;10.942;2023-03-19T01:36:13;100900.66;;;8.52
67829;BMP280;54626;45.436;10.942;2023-03-19T01:38:39;100886.63;;;8.50
67829;BMP280;54626;45.436;10.942;2023-03-19T01:41:09;100884.13;;;8.47
67829;BMP280;54626;45.436;10.942;2023-03-19T01:43:36;100875.41;;;8.43
67829;BMP280;54626;45.436;10.942;2023-03-19T01:46:20;100880.41;;;8.44
67829;BMP280;54626;45.436;10.942;2023-03-19T01:48:50;100874.16;;;8.38
67829;BMP280;54626;45.436;10.942;2023-03-19T01:51:22;100851.13;;;8.36
67829;BMP280;54626;45.436;10.942;2023-03-19T01:53:54;100863.41;;;8.40
67829;BMP280;54626;45.436;10.942;2023-03-19T01:56:23;100871.91;;;8.42
67829;BMP280;54626;45.436;10.942;2023-03-19T01:58:55;100880.63;;;8.46
67829;BMP280;54626;45.436;10.942;2023-03-19T02:01:22;100883.34;;;8.52
67829;BMP280;54626;45.436;10.942;2023-03-19T02:03:51;100871.84;;;8.53
67829;BMP280;54626;45.436;10.942;2023-03-19T02:06:19;100867.50;;;8.58
67829;BMP280;54626;45.436;10.942;2023-03-19T02:08:48;100860.50;;;8.62
67829;BMP280;54626;45.436;10.942;2023-03-19T02:11:17;100872.94;;;8.69
67829;BMP280;54626;45.436;10.942;2023-03-19T02:13:44;100871.44;;;8.68
67829;BMP280;54626;45.436;10.942;2023-03-19T02:16:12;100875.00;;;8.63
67829;BMP280;54626;45.436;10.942;2023-03-19T02:18:40;100874.72;;;8.66
67829;BMP280;54626;45.436;10.942;2023-03-19T02:21:12;100869.25;;;8.61
67829;BMP280;54626;45.436;10.942;2023-03-19T02:24:09;100865.56;;;8.53
67829;BMP280;54626;45.436;10.942;2023-03-19T02:26:39;100862.38;;;8.43
67829;BMP280;54626;45.436;10.942;2023-03-19T02:29:07;100867.72;;;8.30
67829;BMP280;54626;45.436;10.942;2023-03-19T02:31:35;100872.75;;;8.21
67829;BMP280;54626;45.436;10.942;2023-03-19T02:36:47;100873.84;;;8.13
67829;BMP280;54626;45.436;10.942;2023-03-19T02:39:22;100879.81;;;8.17
67829;BMP280;54626;45.436;10.942;2023-03-19T02:41:52;100886.84;;;8.12
67829;BMP280;54626;45.436;10.942;2023-03-19T02:44:20;100882.84;;;8.08
67829;BMP280;54626;45.436;10.942;2023-03-19T02:46:46;100886.16;;;8.01
67829;BMP280;54626;45.436;10.942;2023-03-19T02:49:13;100877.88;;;8.01
67829;BMP280;54626;45.436;10.942;2023-03-19T02:51:40;100881.13;;;7.99
67829;BMP280;54626;45.436;10.942;2023-03-19T02:54:07;100882.63;;;8.00
67829;BMP280;54626;45.436;10.942;2023-03-19T02:56:34;100881.63;;;8.03
67829;BMP280;54626;45.436;10.942;2023-03-19T02:59:01;100884.91;;;8.02
67829;BMP280;54626;45.436;10.942;2023-03-19T03:01:28;100880.88;;;7.97
67829;BMP280;54626;45.436;10.942;2023-03-19T03:03:58;100883.88;;;7.99
67829;BMP280;54626;45.436;10.942;2023-03-19T03:06:24;100885.13;;;7.98
67829;BMP280;54626;45.436;10.942;2023-03-19T03:08:51;100886.38;;;7.97
67829;BMP280;54626;45.436;10.942;2023-03-19T03:11:17;100874.66;;;7.91
67829;BMP280;54626;45.436;10.942;2023-03-19T03:13:44;100886.69;;;7.94
67829;BMP280;54626;45.436;10.942;2023-03-19T03:16:11;100882.44;;;7.87
67829;BMP280;54626;45.436;10.942;2023-03-19T03:18:37;100881.97;;;7.78
67829;BMP280;54626;45.436;10.942;2023-03-19T03:21:04;100888.44;;;7.86
67829;BMP280;54626;45.436;10.942;2023-03-19T03:23:30;100882.69;;;7.95
67829;BMP280;54626;45.436;10.942;2023-03-19T03:25:57;100878.38;;;8.05
67829;BMP280;54626;45.436;10.942;2023-03-19T03:28:23;100882.56;;;8.17
67829;BMP280;54626;45.436;10.942;2023-03-19T03:30:50;100877.25;;;8.24
67829;BMP280;54626;45.436;10.942;2023-03-19T03:33:16;100878.50;;;8.28
67829;BMP280;54626;45.436;10.942;2023-03-19T03:35:44;100884.19;;;8.36
67829;BMP280;54626;45.436;10.942;2023-03-19T03:38:11;100891.69;;;8.41
67829;BMP280;54626;45.436;10.942;2023-03-19T03:40:38;100897.44;;;8.43
67829;BMP280;54626;45.436;10.942;2023-03-19T03:43:04;100890.88;;;8.46
67829;BMP280;54626;45.436;10.942;2023-03-19T03:45:31;100887.91;;;8.44
67829;BMP280;54626;45.436;10.942;2023-03-19T03:47:58;100882.63;;;8.46
67829;BMP280;54626;45.436;10.942;2023-03-19T03:50:24;100885.88;;;8.50
67829;BMP280;54626;45.436;10.942;2023-03-19T03:52:51;100894.63;;;8.54
67829;BMP280;54626;45.436;10.942;2023-03-19T03:55:18;100889.09;;;8.54
67829;BMP280;54626;45.436;10.942;2023-03-19T03:57:44;100890.81;;;8.57
67829;BMP280;54626;45.436;10.942;2023-03-19T04:00:11;100894.09;;;8.55
67829;BMP280;54626;45.436;10.942;2023-03-19T04:02:38;100895.84;;;8.58
67829;BMP280;54626;45.436;10.942;2023-03-19T04:05:05;100896.56;;;8.59
67829;BMP280;54626;45.436;10.942;2023-03-19T04:07:31;100905.09;;;8.61
67829;BMP280;54626;45.436;10.942;2023-03-19T04:09:58;100900.81;;;8.60
67829;BMP280;54626;45.436;10.942;2023-03-19T04:12:24;100914.63;;;8.60
67829;BMP280;54626;45.436;10.942;2023-03-19T04:14:51;100905.38;;;8.57
67829;BMP280;54626;45.436;10.942;2023-03-19T04:17:17;100905.84;;;8.56
67829;BMP280;54626;45.436;10.942;2023-03-19T04:19:44;100899.59;;;8.55
67829;BMP280;54626;45.436;10.942;2023-03-19T04:22:10;100908.59;;;8.56
67829;BMP280;54626;45.436;10.942;2023-03-19T04:24:38;100912.22;;;8.45
67829;BMP280;54626;45.436;10.942;2023-03-19T04:27:06;100917.25;;;8.41
67829;BMP280;54626;45.436;10.942;2023-03-19T04:29:32;100921.31;;;8.29
67829;BMP280;54626;45.436;10.942;2023-03-19T04:31:59;100928.34;;;8.25
67829;BMP280;54626;45.436;10.942;2023-03-19T04:34:26;100934.84;;;8.27
67829;BMP280;54626;45.436;10.942;2023-03-19T04:36:52;100940.56;;;8.35
67829;BMP280;54626;45.436;10.942;2023-03-19T04:39:19;100943.84;;;8.33
67829;BMP280;54626;45.436;10.942;2023-03-19T04:41:45;100945.28;;;8.40
67829;BMP280;54626;45.436;10.942;2023-03-19T04:44:12;100956.59;;;8.36
67829;BMP280;54626;45.436;10.942;2023-03-19T04:46:38;100963.28;;;8.46
67829;BMP280;54626;45.436;10.942;2023-03-19T04:49:05;100948.00;;;8.51
67829;BMP280;54626;45.436;10.942;2023-03-19T04:51:32;100957.75;;;8.52
67829;BMP280;54626;45.436;10.942;2023-03-19T04:54:01;100959.00;;;8.56
67829;BMP280;54626;45.436;10.942;2023-03-19T04:56:27;100960.97;;;8.61
67829;BMP280;54626;45.436;10.942;2023-03-19T04:58:54;100963.97;;;8.63
67829;BMP280;54626;45.436;10.942;2023-03-19T05:01:20;100969.97;;;8.62
67829;BMP280;54626;45.436;10.942;2023-03-19T05:03:47;100972.75;;;8.62
67829;BMP280;54626;45.436;10.942;2023-03-19T05:06:13;100968.25;;;8.59
67829;BMP280;54626;45.436;10.942;2023-03-19T05:08:40;100970.75;;;8.62
67829;BMP280;54626;45.436;10.942;2023-03-19T05:11:07;100975.00;;;8.58
67829;BMP280;54626;45.436;10.942;2023-03-19T05:13:33;100969.78;;;8.54
67829;BMP280;54626;45.436;10.942;2023-03-19T05:16:03;100975.31;;;8.54
67829;BMP280;54626;45.436;10.942;2023-03-19T05:18:30;100971.78;;;8.54
67829;BMP280;54626;45.436;10.942;2023-03-19T05:20:56;100972.56;;;8.54
67829;BMP280;54626;45.436;10.942;2023-03-19T05:23:24;100978.06;;;8.54
67829;BMP280;54626;45.436;10.942;2023-03-19T05:25:50;100984.03;;;8.58
67829;BMP280;54626;45.436;10.942;2023-03-19T05:28:17;100982.25;;;8.61
67829;BMP280;54626;45.436;10.942;2023-03-19T05:30:43;100982.78;;;8.59
67829;BMP280;54626;45.436;10.942;2023-03-19T05:33:10;100985.78;;;8.56
67829;BMP280;54626;45.436;10.942;2023-03-19T05:35:36;100989.03;;;8.60
67829;BMP280;54626;45.436;10.942;2023-03-19T05:38:03;100991.06;;;8.59
67829;BMP280;54626;45.436;10.942;2023-03-19T05:40:30;100991.06;;;8.59
67829;BMP280;54626;45.436;10.942;2023-03-19T05:42:58;100994.59;;;8.54
67829;BMP280;54626;45.436;10.942;2023-03-19T05:45:24;100993.16;;;8.42
67829;BMP280;54626;45.436;10.942;2023-03-19T05:47:51;100990.16;;;8.40
67829;BMP280;54626;45.436;10.942;2023-03-19T05:50:17;100996.38;;;8.41
67829;BMP280;54626;45.436;10.942;2023-03-19T05:52:44;100998.91;;;8.39
67829;BMP280;54626;45.436;10.942;2023-03-19T05:55:11;101000.66;;;8.42
67829;BMP280;54626;45.436;10.942;2023-03-19T05:57:38;100997.09;;;8.47
67829;BMP280;54626;45.436;10.942;2023-03-19T06:00:05;100997.34;;;8.54
67829;BMP280;54626;45.436;10.942;2023-03-19T06:02:33;100993.28;;;8.61
67829;BMP280;54626;45.436;10.942;2023-03-19T06:05:00;100998.56;;;8.64
67829;BMP280;54626;45.436;10.942;2023-03-19T06:07:26;100996.75;;;8.67
67829;BMP280;54626;45.436;10.942;2023-03-19T06:09:53;101005.53;;;8.71
67829;BMP280;54626;45.436;10.942;2023-03-19T06:12:19;101005.53;;;8.71
67829;BMP280;54626;45.436;10.942;2023-03-19T06:14:47;101006.28;;;8.66
67829;BMP280;54626;45.436;10.942;2023-03-19T06:17:13;101012.28;;;8.70
67829;BMP280;54626;45.436;10.942;2023-03-19T06:19:40;101015.75;;;8.76
67829;BMP280;54626;45.436;10.942;2023-03-19T06:22:07;101017.78;;;8.75
67829;BMP280;54626;45.436;10.942;2023-03-19T06:24:34;101034.56;;;8.77
67829;BMP280;54626;45.436;10.942;2023-03-19T06:27:00;101027.78;;;8.78
67829;BMP280;54626;45.436;10.942;2023-03-19T06:29:27;101018.50;;;8.81
67829;BMP280;54626;45.436;10.942;2023-03-19T06:31:55;101021.72;;;8.85
67829;BMP280;54626;45.436;10.942;2023-03-19T06:34:23;101021.97;;;8.87
67829;BMP280;54626;45.436;10.942;2023-03-19T06:36:50;101023.22;;;8.86
67829;BMP280;54626;45.436;10.942;2023-03-19T06:39:19;101030.97;;;8.88
67829;BMP280;54626;45.436;10.942;2023-03-19T06:41:49;101027.03;;;8.83
67829;BMP280;54626;45.436;10.942;2023-03-19T06:44:16;101027.03;;;8.83
67829;BMP280;54626;45.436;10.942;2023-03-19T06:46:43;101038.53;;;8.82
67829;BMP280;54626;45.436;10.942;2023-03-19T06:49:10;101044.59;;;8.80
67829;BMP280;54626;45.436;10.942;2023-03-19T06:51:36;101039.56;;;8.84
67829;BMP280;54626;45.436;10.942;2023-03-19T06:54:03;101042.25;;;8.90
67829;BMP280;54626;45.436;10.942;2023-03-19T06:56:32;101042.22;;;8.95
67829;BMP280;54626;45.436;10.942;2023-03-19T06:58:58;101042.97;;;9.01
67829;BMP280;54626;45.436;10.942;2023-03-19T07:01:24;101047.44;;;9.04
67829;BMP280;54626;45.436;10.942;2023-03-19T07:03:51;101050.88;;;9.15
67829;BMP280;54626;45.436;10.942;2023-03-19T07:06:18;101039.28;;;9.22
67829;BMP280;54626;45.436;10.942;2023-03-19T07:08:44;101051.81;;;9.29
67829;BMP280;54626;45.436;10.942;2023-03-19T07:11:12;101050.47;;;9.35
67829;BMP280;54626;45.436;10.942;2023-03-19T07:13:39;101045.66;;;9.47
67829;BMP280;54626;45.436;10.942;2023-03-19T07:16:06;101042.56;;;9.50
67829;BMP280;54626;45.436;10.942;2023-03-19T07:18:35;101046.75;;;9.62
67829;BMP280;54626;45.436;10.942;2023-03-19T07:21:02;101038.81;;;9.77
67829;BMP280;54626;45.436;10.942;2023-03-19T07:23:30;101042.47;;;9.90
67829;BMP280;54626;45.436;10.942;2023-03-19T07:25:56;101049.38;;;10.02
67829;BMP280;54626;45.436;10.942;2023-03-19T07:28:24;101051.47;;;10.15
67829;BMP280;54626;45.436;10.942;2023-03-19T07:30:51;101056.16;;;10.25
67829;BMP280;54626;45.436;10.942;2023-03-19T07:33:19;101054.44;;;10.22
67829;BMP280;54626;45.436;10.942;2023-03-19T07:35:46;101068.44;;;10.30
67829;BMP280;54626;45.436;10.942;2023-03-19T07:38:13;101075.56;;;10.44
67829;BMP280;54626;45.436;10.942;2023-03-19T07:40:41;101066.53;;;10.62
67829;BMP280;54626;45.436;10.942;2023-03-19T07:43:20;101068.31;;;10.96
67829;BMP280;54626;45.436;10.942;2023-03-19T07:45:48;101067.94;;;11.05
67829;BMP280;54626;45.436;10.942;2023-03-19T07:48:14;101074.88;;;11.11
67829;BMP280;54626;45.436;10.942;2023-03-19T07:50:41;101076.56;;;11.33
67829;BMP280;54626;45.436;10.942;2023-03-19T07:53:08;101076.94;;;11.42
67829;BMP280;54626;45.436;10.942;2023-03-19T07:55:37;101081.34;;;11.32
67829;BMP280;54626;45.436;10.942;2023-03-19T07:58:05;101080.56;;;11.19
67829;BMP280;54626;45.436;10.942;2023-03-19T08:00:50;101078.56;;;11.01
67829;BMP280;54626;45.436;10.942;2023-03-19T08:03:17;101075.88;;;10.95
67829;BMP280;54626;45.436;10.942;2023-03-19T08:05:43;101068.63;;;10.92
67829;BMP280;54626;45.436;10.942;2023-03-19T08:08:10;101077.50;;;11.04
67829;BMP280;54626;45.436;10.942;2023-03-19T08:10:37;101071.34;;;11.29
67829;BMP280;54626;45.436;10.942;2023-03-19T08:13:04;101071.41;;;11.55
67829;BMP280;54626;45.436;10.942;2023-03-19T08:15:31;101072.63;;;11.72
67829;BMP280;54626;45.436;10.942;2023-03-19T08:17:59;101069.75;;;11.78
67829;BMP280;54626;45.436;10.942;2023-03-19T08:20:31;101072.31;;;11.89
67829;BMP280;54626;45.436;10.942;2023-03-19T08:22:58;101074.91;;;12.00
67829;BMP280;54626;45.436;10.942;2023-03-19T08:25:25;101080.66;;;12.02
67829;BMP280;54626;45.436;10.942;2023-03-19T08:27:52;101077.75;;;12.07
67829;BMP280;54626;45.436;10.942;2023-03-19T08:30:22;101073.50;;;11.93
67829;BMP280;54626;45.436;10.942;2023-03-19T08:32:48;101072.13;;;12.25
67829;BMP280;54626;45.436;10.942;2023-03-19T08:35:16;101076.91;;;12.12
67829;BMP280;54626;45.436;10.942;2023-03-19T08:37:42;101076.81;;;12.18
67829;BMP280;54626;45.436;10.942;2023-03-19T08:40:09;101082.25;;;12.36
67829;BMP280;54626;45.436;10.942;2023-03-19T08:42:36;101093.94;;;12.55
67829;BMP280;54626;45.436;10.942;2023-03-19T08:45:12;101089.31;;;12.70
67829;BMP280;54626;45.436;10.942;2023-03-19T08:47:42;101081.94;;;12.73
67829;BMP280;54626;45.436;10.942;2023-03-19T08:50:09;101096.09;;;12.49
67829;BMP280;54626;45.436;10.942;2023-03-19T08:52:39;101096.03;;;12.28
67829;BMP280;54626;45.436;10.942;2023-03-19T08:55:06;101091.31;;;12.49
67829;BMP280;54626;45.436;10.942;2023-03-19T08:57:34;101101.38;;;12.73
67829;BMP280;54626;45.436;10.942;2023-03-19T09:00:01;101095.50;;;12.76
67829;BMP280;54626;45.436;10.942;2023-03-19T09:02:31;101093.25;;;12.88
67829;BMP280;54626;45.436;10.942;2023-03-19T09:04:59;101103.34;;;12.98
67829;BMP280;54626;45.436;10.942;2023-03-19T09:07:25;101104.94;;;13.06
67829;BMP280;54626;45.436;10.942;2023-03-19T09:09:54;101098.25;;;13.22
67829;BMP280;54626;45.436;10.942;2023-03-19T09:12:21;101089.97;;;13.30
67829;BMP280;54626;45.436;10.942;2023-03-19T09:14:47;101096.88;;;13.57
67829;BMP280;54626;45.436;10.942;2023-03-19T09:17:14;101094.69;;;13.63
67829;BMP280;54626;45.436;10.942;2023-03-19T09:19:40;101103.44;;;13.66
67829;BMP280;54626;45.436;10.942;2023-03-19T09:22:07;101109.63;;;13.52
67829;BMP280;54626;45.436;10.942;2023-03-19T09:24:34;101096.56;;;13.88
67829;BMP280;54626;45.436;10.942;2023-03-19T09:27:00;101103.44;;;13.94
67829;BMP280;54626;45.436;10.942;2023-03-19T09:29:28;101105.44;;;13.86
67829;BMP280;54626;45.436;10.942;2023-03-19T09:31:55;101108.13;;;13.99
67829;BMP280;54626;45.436;10.942;2023-03-19T09:34:21;101112.38;;;14.00
67829;BMP280;54626;45.436;10.942;2023-03-19T09:36:50;101107.03;;;14.02
67829;BMP280;54626;45.436;10.942;2023-03-19T09:39:20;101115.28;;;13.87
67829;BMP280;54626;45.436;10.942;2023-03-19T09:42:00;101109.72;;;13.87
67829;BMP280;54626;45.436;10.942;2023-03-19T09:44:34;101117.50;;;13.89
67829;BMP280;54626;45.436;10.942;2023-03-19T09:49:42;101114.41;;;13.72
67829;BMP280;54626;45.436;10.942;2023-03-19T09:54:44;101112.47;;;13.19
67829;BMP280;54626;45.436;10.942;2023-03-19T09:57:12;101113.75;;;13.18
67829;BMP280;54626;45.436;10.942;2023-03-19T09:59:40;101118.56;;;13.17
67829;BMP280;54626;45.436;10.942;2023-03-19T10:02:41;101109.25;;;13.15
67829;BMP280;54626;45.436;10.942;2023-03-19T10:05:26;101108.19;;;13.18
67829;BMP280;54626;45.436;10.942;2023-03-19T10:08:22;101114.72;;;13.20
67829;BMP280;54626;45.436;10.942;2023-03-19T10:16:49;101104.91;;;14.23
67829;BMP280;54626;45.436;10.942;2023-03-19T10:19:20;101101.94;;;14.56
67829;BMP280;54626;45.436;10.942;2023-03-19T10:21:57;101108.53;;;14.89
67829;BMP280;54626;45.436;10.942;2023-03-19T10:24:32;101108.06;;;15.27
67829;BMP280;54626;45.436;10.942;2023-03-19T10:27:08;101100.63;;;15.37
67829;BMP280;54626;45.436;10.942;2023-03-19T10:29:36;101098.22;;;15.56
67829;BMP280;54626;45.436;10.942;2023-03-19T10:34:42;101096.50;;;15.75
67829;BMP280;54626;45.436;10.942;2023-03-19T10:37:13;101091.31;;;15.65
67829;BMP280;54626;45.436;10.942;2023-03-19T10:39:42;101088.25;;;16.00
67829;BMP280;54626;45.436;10.942;2023-03-19T10:42:20;101094.56;;;16.00
67829;BMP280;54626;45.436;10.942;2023-03-19T10:45:08;101091.03;;;16.07
67829;BMP280;54626;45.436;10.942;2023-03-19T10:47:42;101087.88;;;16.03
67829;BMP280;54626;45.436;10.942;2023-03-19T10:50:21;101081.94;;;16.07
67829;BMP280;54626;45.436;10.942;2023-03-19T10:53:03;101079.78;;;16.30
67829;BMP280;54626;45.436;10.942;2023-03-19T10:55:30;101082.19;;;16.65
67829;BMP280;54626;45.436;10.942;2023-03-19T10:58:15;101078.44;;;16.70
67829;BMP280;54626;45.436;10.942;2023-03-19T11:00:48;101082.97;;;16.90
67829;BMP280;54626;45.436;10.942;2023-03-19T11:03:33;101071.69;;;17.04
67829;BMP280;54626;45.436;10.942;2023-03-19T11:06:21;101070.31;;;17.54
67829;BMP280;54626;45.436;10.942;2023-03-19T11:08:57;101063.47;;;17.31
67829;BMP280;54626;45.436;10.942;2023-03-19T11:11:35;101073.22;;;17.22
67829;BMP280;54626;45.436;10.942;2023-03-19T11:14:20;101070.84;;;17.19
67829;BMP280;54626;45.436;10.942;2023-03-19T11:19:26;101063.94;;;17.20
67829;BMP280;54626;45.436;10.942;2023-03-19T11:22:14;101050.97;;;17.32
67829;BMP280;54626;45.436;10.942;2023-03-19T11:24:51;101059.22;;;17.63
67829;BMP280;54626;45.436;10.942;2023-03-19T11:27:29;101057.81;;;17.55
67829;BMP280;54626;45.436;10.942;2023-03-19T11:29:56;101057.00;;;17.79
67829;BMP280;54626;45.436;10.942;2023-03-19T11:35:53;101039.19;;;17.33
67829;BMP280;54626;45.436;10.942;2023-03-19T11:38:45;101038.03;;;17.19
67829;BMP280;54626;45.436;10.942;2023-03-19T11:41:33;101024.47;;;17.33
67829;BMP280;54626;45.436;10.942;2023-03-19T11:44:28;101033.22;;;17.70
67829;BMP280;54626;45.436;10.942;2023-03-19T11:47:36;101020.03;;;17.80
67829;BMP280;54626;45.436;10.942;2023-03-19T11:50:18;101021.38;;;17.46
67829;BMP280;54626;45.436;10.942;2023-03-19T11:53:00;101011.50;;;17.28
67829;BMP280;54626;45.436;10.942;2023-03-19T12:01:21;100998.47;;;17.90
67829;BMP280;54626;45.436;10.942;2023-03-19T12:06:38;100990.84;;;17.57
67829;BMP280;54626;45.436;10.942;2023-03-19T12:11:52;100979.94;;;17.52
67829;BMP280;54626;45.436;10.942;2023-03-19T12:14:24;100982.81;;;18.30
67829;BMP280;54626;45.436;10.942;2023-03-19T12:17:02;100986.94;;;18.29
67829;BMP280;54626;45.436;10.942;2023-03-19T12:27:50;100982.38;;;17.31
67829;BMP280;54626;45.436;10.942;2023-03-19T12:30:31;100990.13;;;16.50
67829;BMP280;54626;45.436;10.942;2023-03-19T12:35:36;100986.09;;;16.68
67829;BMP280;54626;45.436;10.942;2023-03-19T12:38:21;100978.50;;;16.85
67829;BMP280;54626;45.436;10.942;2023-03-19T12:40:55;100983.88;;;16.91
67829;BMP280;54626;45.436;10.942;2023-03-19T12:43:45;100982.03;;;16.86
67829;BMP280;54626;45.436;10.942;2023-03-19T12:46:36;100970.84;;;17.10
67829;BMP280;54626;45.436;10.942;2023-03-19T12:49:30;100974.47;;;17.03
67829;BMP280;54626;45.436;10.942;2023-03-19T12:52:16;100972.34;;;17.11
67829;BMP280;54626;45.436;10.942;2023-03-19T12:54:52;100965.75;;;17.33
67829;BMP280;54626;45.436;10.942;2023-03-19T12:57:33;100956.63;;;17.49
67829;BMP280;54626;45.436;10.942;2023-03-19T13:00:33;100947.00;;;17.59
67829;BMP280;54626;45.436;10.942;2023-03-19T13:05:43;100954.78;;;17.78
67829;BMP280;54626;45.436;10.942;2023-03-19T13:08:21;100956.06;;;17.94
67829;BMP280;54626;45.436;10.942;2023-03-19T13:10:49;100939.03;;;18.25
67829;BMP280;54626;45.436;10.942;2023-03-19T13:13:27;100949.53;;;18.44
67829;BMP280;54626;45.436;10.942;2023-03-19T13:16:05;100941.81;;;18.35
67829;BMP280;54626;45.436;10.942;2023-03-19T13:18:57;100939.81;;;18.45
67829;BMP280;54626;45.436;10.942;2023-03-19T13:21:26;100937.63;;;18.53
67829;BMP280;54626;45.436;10.942;2023-03-19T13:24:17;100934.56;;;18.22
67829;BMP280;54626;45.436;10.942;2023-03-19T13:26:44;100934.38;;;18.47
67829;BMP280;54626;45.436;10.942;2023-03-19T13:29:22;100935.44;;;18.61
67829;BMP280;54626;45.436;10.942;2023-03-19T13:31:50;100936.56;;;18.39
67829;BMP280;54626;45.436;10.942;2023-03-19T13:39:31;100934.22;;;17.83
67829;BMP280;54626;45.436;10.942;2023-03-19T13:44:38;100932.81;;;18.27
67829;BMP280;54626;45.436;10.942;2023-03-19T13:55:30;100926.75;;;18.57
67829;BMP280;54626;45.436;10.942;2023-03-19T14:01:04;100919.59;;;18.01
67829;BMP280;54626;45.436;10.942;2023-03-19T14:03:34;100917.00;;;18.13
67829;BMP280;54626;45.436;10.942;2023-03-19T14:06:02;100912.88;;;17.87
67829;BMP280;54626;45.436;10.942;2023-03-19T14:08:44;100913.50;;;18.21
67829;BMP280;54626;45.436;10.942;2023-03-19T14:11:24;100911.00;;;18.35
67829;BMP280;54626;45.436;10.942;2023-03-19T14:13:54;100906.34;;;18.37
67829;BMP280;54626;45.436;10.942;2023-03-19T14:16:24;100905.81;;;18.22
67829;BMP280;54626;45.436;10.942;2023-03-19T14:18:55;100905.34;;;18.07
67829;BMP280;54626;45.436;10.942;2023-03-19T14:21:33;100907.84;;;18.12
67829;BMP280;54626;45.436;10.942;2023-03-19T14:27:24;100903.09;;;18.05
67829;BMP280;54626;45.436;10.942;2023-03-19T14:29:53;100897.47;;;17.69
67829;BMP280;54626;45.436;10.942;2023-03-19T14:32:24;100896.34;;;17.82
67829;BMP280;54626;45.436;10.942;2023-03-19T14:34:54;100901.19;;;17.81
67829;BMP280;54626;45.436;10.942;2023-03-19T14:37:25;100884.41;;;17.81
67829;BMP280;54626;45.436;10.942;2023-03-19T14:39:58;100892.88;;;17.91
67829;BMP280;54626;45.436;10.942;2023-03-19T14:42:39;100889.63;;;17.94
67829;BMP280;54626;45.436;10.942;2023-03-19T14:53:38;100888.63;;;17.47
67829;BMP280;54626;45.436;10.942;2023-03-19T14:56:21;100893.41;;;17.63
67829;BMP280;54626;45.436;10.942;2023-03-19T14:58:55;100892.31;;;17.75
67829;BMP280;54626;45.436;10.942;2023-03-19T15:01:23;100887.63;;;17.52
67829;BMP280;54626;45.436;10.942;2023-03-19T15:03:59;100883.91;;;17.49
67829;BMP280;54626;45.436;10.942;2023-03-19T15:06:34;100884.91;;;17.44
67829;BMP280;54626;45.436;10.942;2023-03-19T15:09:18;100885.16;;;17.56
67829;BMP280;54626;45.436;10.942;2023-03-19T15:12:19;100888.03;;;17.31
67829;BMP280;54626;45.436;10.942;2023-03-19T15:17:40;100883.94;;;17.32
67829;BMP280;54626;45.436;10.942;2023-03-19T15:20:16;100887.06;;;17.02
67829;BMP280;54626;45.436;10.942;2023-03-19T15:23:06;100892.09;;;16.87
67829;BMP280;54626;45.436;10.942;2023-03-19T15:25:54;100896.38;;;16.88
67829;BMP280;54626;45.436;10.942;2023-03-19T15:28:32;100892.41;;;16.91
67829;BMP280;54626;45.436;10.942;2023-03-19T15:31:05;100899.88;;;16.89